Time;durP1;ratioP1;P1;durP2;ratioP2;P2;SDS_P1;SDS_P2;PMS_P1;PMS_P2;Temp;Humidity;BMP_temperature;BMP_pressure;BME280_temperature;BME280_humidity;BME280_pressure;Samples;Min_cycle;Max_cycle;Signal;HPM_P1;HPM_P2
2021/09/28 00:01:30;;;;;;;11.00;2.25;;;12.40;83.20;;;;;;5008413;28;20014;-76
2021/09/28 00:03:56;;;;;;;11.45;2.75;;;12.40;83.20;;;;;;5020942;28;20057;-77
2021/09/28 00:06:21;;;;;;;14.35;2.70;;;12.40;83.30;;;;;;5035717;28;20046;-74
2021/09/28 00:08:47;;;;;;;9.57;2.60;;;12.30;83.40;;;;;;5026714;28;20092;-75
2021/09/28 00:11:13;;;;;;;8.52;2.30;;;12.30;83.40;;;;;;5023945;28;20077;-74
2021/09/28 00:13:39;;;;;;;12.10;2.60;;;12.30;83.40;;;;;;5032351;28;20022;-77
2021/09/28 00:16:05;;;;;;;9.57;2.60;;;12.30;83.50;;;;;;5024106;28;20028;-76
2021/09/28 00:18:31;;;;;;;12.07;3.03;;;12.30;83.50;;;;;;5031051;28;20026;-77
2021/09/28 00:20:57;;;;;;;12.93;2.70;;;12.30;83.40;;;;;;5028882;28;20024;-74
2021/09/28 00:23:23;;;;;;;10.88;2.78;;;12.30;83.40;;;;;;5027937;28;20018;-73
2021/09/28 00:25:49;;;;;;;8.90;2.40;;;12.20;83.40;;;;;;5029932;28;20026;-77
2021/09/28 00:28:16;;;;;;;6.82;2.10;;;12.20;83.60;;;;;;5029999;28;20042;-77
2021/09/28 00:30:43;;;;;;;12.63;2.38;;;12.20;83.50;;;;;;5023151;28;20042;-73
2021/09/28 00:33:09;;;;;;;13.60;2.63;;;12.20;83.50;;;;;;5032393;28;20267;-74
2021/09/28 00:35:35;;;;;;;8.07;2.45;;;12.20;83.50;;;;;;5030210;28;20034;-77
2021/09/28 00:38:01;;;;;;;10.63;2.20;;;12.10;83.60;;;;;;5028980;28;20036;-78
2021/09/28 00:40:27;;;;;;;15.18;2.90;;;12.10;83.70;;;;;;5028859;28;20030;-76
2021/09/28 00:42:53;;;;;;;12.30;2.55;;;12.10;84.00;;;;;;5035857;28;20022;-74
2021/09/28 00:45:19;;;;;;;14.77;2.70;;;12.10;84.10;;;;;;5035062;28;20038;-77
2021/09/28 00:47:45;;;;;;;12.05;3.30;;;12.00;84.10;;;;;;5034052;28;20029;-75
2021/09/28 00:50:12;;;;;;;8.95;2.42;;;12.00;84.30;;;;;;5033327;28;20034;-76
2021/09/28 00:52:38;;;;;;;9.80;2.83;;;12.00;84.30;;;;;;5035709;28;20018;-76
2021/09/28 00:55:04;;;;;;;13.40;2.65;;;12.00;84.40;;;;;;5035263;28;20089;-74
2021/09/28 00:57:31;;;;;;;11.32;2.42;;;11.90;84.30;;;;;;5035938;28;20047;-76
2021/09/28 00:59:57;;;;;;;10.75;2.40;;;11.90;84.40;;;;;;5037982;28;20029;-76
2021/09/28 01:02:23;;;;;;;10.80;2.75;;;11.90;84.40;;;;;;5033528;28;20014;-75
2021/09/28 01:04:49;;;;;;;11.65;3.00;;;11.80;84.60;;;;;;5036235;28;20081;-72
2021/09/28 01:07:14;;;;;;;9.23;2.70;;;11.80;84.60;;;;;;5031865;28;20041;-72
2021/09/28 01:09:40;;;;;;;10.70;2.55;;;11.80;84.60;;;;;;5037516;28;20014;-76
2021/09/28 01:12:09;;;;;;;13.25;3.03;;;11.80;84.70;;;;;;5034094;28;20034;-76
2021/09/28 01:14:36;;;;;;;12.70;2.97;;;11.80;84.70;;;;;;5035720;28;20045;-77
2021/09/28 01:17:02;;;;;;;12.68;3.10;;;11.80;84.90;;;;;;5035064;28;20050;-75
2021/09/28 01:19:27;;;;;;;11.88;2.65;;;11.70;84.90;;;;;;5031318;28;20026;-75
2021/09/28 01:21:53;;;;;;;12.68;2.85;;;11.70;84.80;;;;;;5033993;28;20040;-76
2021/09/28 01:24:19;;;;;;;12.30;2.92;;;11.70;85.00;;;;;;5028737;28;20025;-77
2021/09/28 01:26:45;;;;;;;8.77;2.25;;;11.70;84.90;;;;;;5030506;28;20022;-76
2021/09/28 01:29:11;;;;;;;11.43;2.85;;;11.70;85.00;;;;;;5032048;28;20026;-72
2021/09/28 01:31:40;;;;;;;13.05;2.45;;;11.70;85.00;;;;;;5034712;28;20088;-75
2021/09/28 01:34:07;;;;;;;13.93;3.40;;;11.70;85.00;;;;;;5037195;28;20045;-76
2021/09/28 01:36:34;;;;;;;14.25;2.88;;;11.70;84.90;;;;;;5032791;28;20381;-76
2021/09/28 01:39:00;;;;;;;11.35;2.90;;;11.70;84.80;;;;;;5037167;28;20033;-74
2021/09/28 01:41:26;;;;;;;13.52;3.08;;;11.60;84.90;;;;;;5037049;28;20017;-76
2021/09/28 01:44:04;;;;;;;7.60;2.65;;;11.60;85.00;;;;;;5033553;28;20030;-74
2021/09/28 01:46:30;;;;;;;10.60;2.50;;;11.60;85.00;;;;;;5029488;28;20098;-76
2021/09/28 01:48:56;;;;;;;9.20;2.47;;;11.60;85.10;;;;;;5032518;28;20022;-75
2021/09/28 01:51:22;;;;;;;10.82;2.97;;;11.60;85.20;;;;;;5030828;28;20034;-76
2021/09/28 01:53:48;;;;;;;10.80;2.70;;;11.60;85.20;;;;;;5033729;28;20037;-76
2021/09/28 01:56:21;;;;;;;13.23;3.15;;;11.60;85.10;;;;;;5034999;28;20025;-72
2021/09/28 01:58:48;;;;;;;8.90;2.50;;;11.60;85.20;;;;;;5032634;28;20054;-75
2021/09/28 02:01:14;;;;;;;14.55;3.13;;;11.50;85.30;;;;;;5033859;28;20427;-74
2021/09/28 02:03:40;;;;;;;7.32;2.20;;;11.50;85.40;;;;;;5028590;28;20026;-76
2021/09/28 02:06:06;;;;;;;10.45;2.70;;;11.50;85.50;;;;;;5032782;28;20026;-75
2021/09/28 02:08:32;;;;;;;11.32;3.00;;;11.40;85.60;;;;;;5031332;28;20040;-76
2021/09/28 02:10:58;;;;;;;9.55;2.38;;;11.40;85.60;;;;;;5029777;28;20010;-72
2021/09/28 02:13:23;;;;;;;10.23;3.33;;;11.40;85.60;;;;;;5028897;28;20565;-74
2021/09/28 02:15:49;;;;;;;11.50;2.13;;;11.40;85.70;;;;;;5032533;28;20029;-76
2021/09/28 02:18:14;;;;;;;13.48;2.83;;;11.40;85.60;;;;;;5034957;28;20022;-75
2021/09/28 02:20:40;;;;;;;8.32;2.75;;;11.40;85.80;;;;;;5030564;28;20025;-76
2021/09/28 02:23:06;;;;;;;10.68;2.80;;;11.40;85.80;;;;;;5030238;28;20082;-76
2021/09/28 02:25:31;;;;;;;11.40;2.15;;;11.40;85.80;;;;;;5032513;28;20623;-75
2021/09/28 02:27:57;;;;;;;9.20;2.92;;;11.30;85.80;;;;;;5028671;28;20056;-74
2021/09/28 02:30:23;;;;;;;8.55;2.97;;;11.40;85.90;;;;;;5030593;28;20026;-72
2021/09/28 02:32:49;;;;;;;13.73;3.10;;;11.40;85.70;;;;;;5030876;28;20030;-76
2021/09/28 02:35:14;;;;;;;10.80;3.63;;;11.40;85.60;;;;;;5033460;28;20049;-75
2021/09/28 02:37:40;;;;;;;11.25;2.83;;;11.40;85.60;;;;;;5025271;28;20030;-72
2021/09/28 02:40:08;;;;;;;12.95;2.83;;;11.30;85.70;;;;;;5027051;28;20026;-72
2021/09/28 02:42:33;;;;;;;10.93;2.50;;;11.30;85.70;;;;;;5033070;28;20017;-72
2021/09/28 02:44:59;;;;;;;9.35;2.55;;;11.30;85.80;;;;;;5033197;28;20024;-76
2021/09/28 02:47:26;;;;;;;10.35;3.00;;;11.30;85.80;;;;;;5036292;28;21033;-72
2021/09/28 02:49:52;;;;;;;9.77;3.08;;;11.30;85.90;;;;;;5029180;28;20065;-77
2021/09/28 02:52:17;;;;;;;9.07;2.97;;;11.30;85.90;;;;;;5029696;28;20010;-72
2021/09/28 02:54:43;;;;;;;9.75;2.85;;;11.30;85.90;;;;;;5032159;28;20025;-76
2021/09/28 02:57:09;;;;;;;10.85;2.67;;;11.30;85.80;;;;;;5032579;28;20089;-76
2021/09/28 02:59:35;;;;;;;11.63;3.17;;;11.30;85.80;;;;;;5032190;28;20019;-76
2021/09/28 03:02:02;;;;;;;11.98;2.85;;;11.20;85.80;;;;;;5027796;28;20038;-74
2021/09/28 03:04:28;;;;;;;9.48;2.45;;;11.20;85.80;;;;;;5027359;28;20018;-76
2021/09/28 03:06:54;;;;;;;11.55;3.05;;;11.10;86.10;;;;;;5030421;28;20033;-76
2021/09/28 03:09:20;;;;;;;12.43;2.95;;;11.10;86.10;;;;;;5030140;28;20021;-76
2021/09/28 03:11:45;;;;;;;13.95;3.28;;;11.20;85.90;;;;;;5029374;28;20037;-75
2021/09/28 03:14:11;;;;;;;11.43;2.85;;;11.20;85.90;;;;;;5029818;28;20034;-75
2021/09/28 03:16:37;;;;;;;11.73;3.10;;;11.20;85.90;;;;;;5030282;28;20033;-76
2021/09/28 03:19:02;;;;;;;14.15;2.90;;;11.10;85.90;;;;;;5026697;28;20034;-75
2021/09/28 03:21:28;;;;;;;12.05;2.97;;;11.10;86.10;;;;;;5029160;28;20070;-73
2021/09/28 03:23:54;;;;;;;13.48;3.33;;;11.10;86.10;;;;;;5030429;28;20037;-76
2021/09/28 03:26:20;;;;;;;13.10;3.50;;;11.10;85.90;;;;;;5025211;28;20030;-75
2021/09/28 03:28:45;;;;;;;11.82;3.53;;;11.10;85.90;;;;;;5044711;28;20030;-76
2021/09/28 03:31:11;;;;;;;14.63;3.63;;;11.10;86.00;;;;;;5029400;28;20029;-76
2021/09/28 03:33:37;;;;;;;12.40;3.17;;;11.10;86.00;;;;;;5028080;28;20025;-74
2021/09/28 03:36:03;;;;;;;11.27;2.30;;;11.10;86.10;;;;;;5031241;28;20049;-73
2021/09/28 03:38:29;;;;;;;9.68;3.03;;;11.10;86.20;;;;;;5030818;28;20018;-76
2021/09/28 03:40:55;;;;;;;13.00;2.83;;;11.10;86.20;;;;;;5027168;28;20125;-76
2021/09/28 03:43:21;;;;;;;13.80;3.33;;;11.10;86.00;;;;;;5032774;28;20041;-76
2021/09/28 03:45:46;;;;;;;12.50;2.78;;;11.10;86.00;;;;;;5032149;28;20086;-77
2021/09/28 03:48:12;;;;;;;11.48;2.85;;;11.10;86.20;;;;;;5032457;28;20118;-72
2021/09/28 03:50:38;;;;;;;10.55;2.80;;;11.00;86.30;;;;;;5023568;28;20022;-73
2021/09/28 03:53:05;;;;;;;11.80;3.40;;;11.00;86.40;;;;;;5031459;28;20086;-76
2021/09/28 03:55:32;;;;;;;10.48;2.50;;;11.00;86.40;;;;;;5032760;28;20018;-75
2021/09/28 03:58:00;;;;;;;10.07;2.85;;;11.00;86.40;;;;;;5031858;28;20018;-72
2021/09/28 04:00:25;;;;;;;11.13;2.95;;;11.10;86.40;;;;;;5029404;28;20057;-77
2021/09/28 04:02:51;;;;;;;13.52;3.25;;;11.00;86.30;;;;;;5023529;28;20026;-75
2021/09/28 04:05:16;;;;;;;13.07;3.30;;;11.00;86.30;;;;;;5023583;28;20021;-76
2021/09/28 04:07:42;;;;;;;13.70;3.33;;;11.00;86.50;;;;;;5045262;28;20109;-75
2021/09/28 04:10:10;;;;;;;13.02;3.95;;;11.00;86.60;;;;;;5030307;28;20053;-71
2021/09/28 04:12:37;;;;;;;11.48;2.92;;;11.00;86.50;;;;;;5030515;28;20033;-74
2021/09/28 04:15:05;;;;;;;13.15;3.78;;;11.00;86.40;;;;;;5031280;28;20018;-74
2021/09/28 04:17:31;;;;;;;14.25;3.88;;;11.00;86.40;;;;;;5023368;28;20038;-74
2021/09/28 04:19:57;;;;;;;10.48;3.17;;;11.00;86.30;;;;;;5024943;28;20040;-75
2021/09/28 04:22:24;;;;;;;10.38;2.85;;;11.00;86.40;;;;;;5029029;28;20042;-75
2021/09/28 04:24:51;;;;;;;12.13;3.33;;;11.00;86.50;;;;;;5024146;28;20037;-77
2021/09/28 04:27:17;;;;;;;12.88;3.22;;;11.00;86.50;;;;;;5021287;28;20026;-73
2021/09/28 04:29:43;;;;;;;12.95;3.15;;;11.00;86.50;;;;;;5025896;28;20031;-76
2021/09/28 04:32:09;;;;;;;10.70;2.88;;;11.00;86.50;;;;;;5028355;28;20021;-76
2021/09/28 04:34:35;;;;;;;9.43;3.05;;;11.00;86.40;;;;;;5029303;28;20021;-76
2021/09/28 04:37:01;;;;;;;11.73;3.00;;;11.00;86.30;;;;;;5028062;28;20101;-76
2021/09/28 04:39:27;;;;;;;12.98;3.47;;;11.00;86.60;;;;;;5029038;28;20026;-73
2021/09/28 04:41:52;;;;;;;15.77;3.30;;;11.00;86.40;;;;;;5030255;28;20046;-76
2021/09/28 04:44:18;;;;;;;11.93;3.45;;;11.00;86.40;;;;;;5022201;28;20044;-76
2021/09/28 04:46:44;;;;;;;14.43;3.88;;;10.90;86.50;;;;;;5028079;28;20025;-76
2021/09/28 04:49:10;;;;;;;13.10;3.53;;;10.90;86.60;;;;;;5017158;28;20089;-76
2021/09/28 04:51:36;;;;;;;10.68;3.15;;;10.90;86.60;;;;;;5032451;28;20093;-76
2021/09/28 04:54:02;;;;;;;13.18;3.80;;;10.90;86.60;;;;;;5025096;28;20040;-73
2021/09/28 04:56:28;;;;;;;9.65;2.97;;;10.90;86.70;;;;;;5026575;28;20073;-73
2021/09/28 04:58:54;;;;;;;14.57;3.60;;;10.90;86.70;;;;;;5025073;28;20026;-76
2021/09/28 05:01:19;;;;;;;12.98;4.32;;;10.90;86.70;;;;;;5026620;28;20330;-76
2021/09/28 05:03:45;;;;;;;15.02;3.50;;;10.80;86.70;;;;;;5018300;28;20032;-75
2021/09/28 05:06:12;;;;;;;14.43;3.88;;;10.80;86.80;;;;;;5025409;28;20014;-74
2021/09/28 05:08:39;;;;;;;11.38;3.80;;;10.80;86.80;;;;;;5028272;28;20121;-73
2021/09/28 05:11:09;;;;;;;16.00;4.13;;;10.70;87.10;;;;;;5029196;28;20040;-75
2021/09/28 05:13:35;;;;;;;9.27;3.80;;;10.80;87.10;;;;;;5029225;28;20093;-72
2021/09/28 05:16:00;;;;;;;10.35;3.58;;;10.70;87.00;;;;;;5026777;28;20049;-73
2021/09/28 05:18:26;;;;;;;10.50;4.05;;;10.70;87.10;;;;;;5028808;28;20022;-74
2021/09/28 05:20:52;;;;;;;12.93;3.75;;;10.70;87.10;;;;;;5030802;28;20022;-77
2021/09/28 05:23:17;;;;;;;13.82;4.10;;;10.70;87.10;;;;;;5027402;28;20126;-78
2021/09/28 05:25:43;;;;;;;11.38;3.35;;;10.70;87.20;;;;;;5029033;28;20129;-76
2021/09/28 05:28:09;;;;;;;12.10;4.30;;;10.60;87.20;;;;;;5021336;28;20090;-72
2021/09/28 05:30:35;;;;;;;15.65;4.50;;;10.60;87.40;;;;;;5026116;28;20041;-69
2021/09/28 05:33:00;;;;;;;15.65;4.03;;;10.60;87.30;;;;;;5030467;28;20041;-73
2021/09/28 05:35:26;;;;;;;14.75;4.60;;;10.60;87.30;;;;;;5028047;28;20010;-72
2021/09/28 05:37:53;;;;;;;11.27;4.35;;;10.60;87.40;;;;;;5025052;28;20034;-73
2021/09/28 05:40:18;;;;;;;12.43;4.32;;;10.60;87.50;;;;;;5030069;28;20014;-75
2021/09/28 05:42:44;;;;;;;13.90;4.03;;;10.60;87.50;;;;;;5033530;28;20025;-69
2021/09/28 05:45:10;;;;;;;18.13;4.97;;;10.60;87.50;;;;;;5032770;28;20061;-68
2021/09/28 05:47:36;;;;;;;9.95;4.05;;;10.60;87.40;;;;;;5029807;28;20014;-69
2021/09/28 05:50:02;;;;;;;14.98;4.75;;;10.70;87.40;;;;;;5033636;28;20064;-71
2021/09/28 05:52:28;;;;;;;14.10;4.68;;;10.60;87.20;;;;;;5031754;28;20030;-72
2021/09/28 05:54:54;;;;;;;13.98;4.80;;;10.70;87.20;;;;;;5030549;28;20026;-68
2021/09/28 05:57:21;;;;;;;15.40;5.00;;;10.70;87.20;;;;;;5028756;28;20068;-70
2021/09/28 05:59:48;;;;;;;15.02;4.47;;;10.70;87.10;;;;;;5027840;28;20041;-72
2021/09/28 06:02:14;;;;;;;16.73;4.15;;;10.70;87.20;;;;;;5032817;28;20029;-72
2021/09/28 06:04:41;;;;;;;11.30;4.00;;;10.70;87.20;;;;;;5030606;28;20022;-70
2021/09/28 06:07:07;;;;;;;12.52;4.38;;;10.70;87.10;;;;;;5032671;28;20036;-71
2021/09/28 06:09:35;;;;;;;10.07;4.25;;;10.80;87.10;;;;;;5029157;28;20030;-72
2021/09/28 06:12:06;;;;;;;13.88;4.70;;;10.90;87.00;;;;;;5028941;28;20026;-71
2021/09/28 06:14:33;;;;;;;13.07;3.88;;;10.90;86.90;;;;;;5029781;28;20048;-72
2021/09/28 06:16:59;;;;;;;11.98;3.40;;;10.90;86.70;;;;;;5026042;28;20042;-74
2021/09/28 06:19:26;;;;;;;14.13;4.07;;;11.10;86.60;;;;;;5027037;28;20021;-71
2021/09/28 06:21:51;;;;;;;13.40;5.25;;;11.10;86.30;;;;;;5032971;28;20064;-73
2021/09/28 06:24:17;;;;;;;13.13;3.80;;;11.30;86.20;;;;;;5026367;28;20072;-72
2021/09/28 06:26:44;;;;;;;12.38;4.20;;;11.40;85.70;;;;;;5029447;28;20030;-74
2021/09/28 06:29:12;;;;;;;13.63;3.50;;;11.70;84.80;;;;;;5032868;28;20030;-72
2021/09/28 06:31:37;;;;;;;14.68;3.75;;;12.00;83.90;;;;;;5032263;28;20029;-69
2021/09/28 06:34:03;;;;;;;14.57;3.38;;;12.30;82.80;;;;;;5031375;28;20014;-69
2021/09/28 06:36:29;;;;;;;12.90;3.38;;;12.50;81.60;;;;;;5027414;28;20026;-73
2021/09/28 06:38:54;;;;;;;13.15;3.20;;;12.50;81.60;;;;;;5042482;28;20042;-73
2021/09/28 06:41:20;;;;;;;9.93;3.10;;;12.40;81.70;;;;;;5020296;28;20065;-74
2021/09/28 06:43:46;;;;;;;12.77;3.97;;;12.30;81.90;;;;;;5032663;28;20065;-69
2021/09/28 06:46:12;;;;;;;12.10;3.80;;;12.30;82.20;;;;;;5030227;28;20039;-71
2021/09/28 06:48:38;;;;;;;10.30;3.25;;;12.30;82.40;;;;;;5028796;28;20014;-72
2021/09/28 06:51:03;;;;;;;14.77;3.67;;;12.20;82.40;;;;;;5029378;28;20025;-73
2021/09/28 06:53:29;;;;;;;10.13;3.38;;;12.20;82.40;;;;;;5027588;28;20014;-73
2021/09/28 06:55:55;;;;;;;9.20;3.28;;;12.30;82.40;;;;;;5020640;28;20026;-74
2021/09/28 06:58:20;;;;;;;10.40;3.25;;;12.30;82.50;;;;;;5019714;28;20038;-70
2021/09/28 07:00:46;;;;;;;16.40;4.20;;;12.30;82.60;;;;;;5026364;28;20014;-68
2021/09/28 07:03:12;;;;;;;14.95;4.35;;;12.30;82.50;;;;;;5028906;28;20050;-70
2021/09/28 07:05:38;;;;;;;18.48;4.50;;;12.40;82.40;;;;;;5026913;28;20034;-71
2021/09/28 07:08:04;;;;;;;13.07;4.68;;;12.40;82.20;;;;;;5030549;28;20025;-72
2021/09/28 07:10:30;;;;;;;13.38;4.32;;;12.40;82.20;;;;;;5034334;28;20014;-68
2021/09/28 07:12:56;;;;;;;15.90;4.75;;;12.40;82.10;;;;;;5026411;28;20094;-71
2021/09/28 07:15:22;;;;;;;11.48;4.00;;;12.50;82.20;;;;;;5027766;28;20006;-69
2021/09/28 07:17:48;;;;;;;12.85;3.70;;;12.50;82.10;;;;;;5027980;28;20036;-72
2021/09/28 07:20:14;;;;;;;13.73;4.35;;;12.60;82.10;;;;;;5025645;28;20077;-73
2021/09/28 07:22:39;;;;;;;16.02;4.60;;;12.60;82.10;;;;;;5028995;28;20022;-72
2021/09/28 07:25:05;;;;;;;15.38;4.82;;;12.80;81.80;;;;;;5027694;28;20013;-71
2021/09/28 07:27:31;;;;;;;10.80;4.00;;;12.90;81.60;;;;;;5025081;28;20045;-71
2021/09/28 07:29:57;;;;;;;15.30;3.95;;;13.00;80.90;;;;;;5024066;28;20022;-70
2021/09/28 07:32:23;;;;;;;13.77;3.45;;;13.10;80.60;;;;;;5026492;28;20034;-73
2021/09/28 07:34:49;;;;;;;16.98;4.18;;;13.10;80.40;;;;;;5026276;28;20026;-72
2021/09/28 07:37:16;;;;;;;12.32;3.78;;;13.20;80.10;;;;;;5027399;28;20030;-73
2021/09/28 07:39:41;;;;;;;15.40;4.13;;;13.40;80.10;;;;;;5032597;28;20048;-72
2021/09/28 07:42:07;;;;;;;13.07;3.08;;;13.50;79.40;;;;;;5027699;28;20015;-70
2021/09/28 07:44:33;;;;;;;10.73;3.45;;;13.70;78.60;;;;;;5019287;28;20014;-73
2021/09/28 07:46:59;;;;;;;10.00;3.42;;;13.80;78.40;;;;;;5030927;28;20247;-73
2021/09/28 07:49:28;;;;;;;17.67;3.42;;;13.90;77.60;;;;;;5029224;28;20030;-72
2021/09/28 07:51:54;;;;;;;10.85;3.63;;;14.00;77.40;;;;;;5027915;28;20049;-71
2021/09/28 07:54:19;;;;;;;14.52;3.60;;;14.10;77.40;;;;;;5027403;28;20086;-73
2021/09/28 07:56:45;;;;;;;12.63;3.45;;;14.30;76.80;;;;;;5030633;28;20033;-73
2021/09/28 07:59:11;;;;;;;13.43;3.58;;;14.40;76.70;;;;;;5026279;28;21015;-73
2021/09/28 08:01:37;;;;;;;15.70;4.13;;;14.60;76.50;;;;;;5024636;28;20022;-68
2021/09/28 08:04:04;;;;;;;18.40;3.47;;;14.70;76.00;;;;;;5027798;28;20045;-71
2021/09/28 08:06:30;;;;;;;15.95;3.63;;;14.80;74.80;;;;;;5026466;28;20024;-72
2021/09/28 08:08:55;;;;;;;11.20;3.10;;;14.80;75.30;;;;;;5031320;28;20014;-73
2021/09/28 08:11:21;;;;;;;13.52;3.90;;;14.80;75.50;;;;;;5025464;28;20025;-72
2021/09/28 08:13:47;;;;;;;17.05;4.03;;;14.90;75.00;;;;;;5028154;28;20081;-68
2021/09/28 08:16:13;;;;;;;13.30;3.60;;;14.90;75.40;;;;;;5019374;28;20084;-71
2021/09/28 08:18:39;;;;;;;12.27;2.90;;;15.10;75.00;;;;;;5026358;28;20029;-69
2021/09/28 08:21:04;;;;;;;9.85;3.20;;;15.10;74.60;;;;;;5027496;28;20014;-73
2021/09/28 08:23:30;;;;;;;12.45;3.22;;;15.30;74.30;;;;;;5024202;28;20023;-72
2021/09/28 08:31:08;;;;;;;12.20;3.30;;;15.80;73.80;;;;;;5029314;28;20100;-72
2021/09/28 08:33:35;;;;;;;11.18;2.78;;;16.10;72.80;;;;;;5026747;28;20048;-72
2021/09/28 08:36:01;;;;;;;11.30;2.92;;;16.20;71.40;;;;;;5028253;28;20060;-74
2021/09/28 08:38:31;;;;;;;11.00;2.90;;;16.30;72.00;;;;;;5014479;28;20022;-69
2021/09/28 08:40:58;;;;;;;14.55;3.60;;;16.50;70.70;;;;;;5011148;28;20014;-73
2021/09/28 08:43:25;;;;;;;11.77;2.90;;;16.70;70.50;;;;;;5007609;28;20014;-72
2021/09/28 08:45:51;;;;;;;12.82;2.95;;;16.70;70.10;;;;;;5008038;28;20087;-73
2021/09/28 08:48:17;;;;;;;9.88;2.60;;;16.80;69.70;;;;;;5009274;28;20022;-71
2021/09/28 08:50:48;;;;;;;14.50;3.83;;;17.00;69.80;;;;;;5007461;28;20074;-73
2021/09/28 08:53:18;;;;;;;11.25;3.13;;;17.10;69.20;;;;;;5004920;28;20189;-73
2021/09/28 08:55:45;;;;;;;12.88;3.05;;;17.10;68.40;;;;;;5011053;28;20131;-69
2021/09/28 08:58:21;;;;;;;12.65;2.80;;;17.10;68.70;;;;;;5010000;28;20018;-72
2021/09/28 09:00:48;;;;;;;9.80;2.88;;;17.20;67.80;;;;;;5012045;28;20023;-73
2021/09/28 09:03:34;;;;;;;10.95;2.75;;;17.30;67.60;;;;;;5016089;28;20078;-71
2021/09/28 09:06:03;;;;;;;12.02;2.95;;;17.50;67.50;;;;;;5014822;28;20038;-73
2021/09/28 09:08:33;;;;;;;12.80;2.60;;;17.50;66.60;;;;;;5006651;28;20023;-73
2021/09/28 09:11:21;;;;;;;14.10;3.35;;;17.60;66.60;;;;;;5014842;28;20018;-72
2021/09/28 09:13:52;;;;;;;13.30;3.53;;;17.50;66.30;;;;;;5015538;28;20055;-69
2021/09/28 09:16:18;;;;;;;12.85;2.88;;;17.60;66.10;;;;;;5010023;28;20463;-71
2021/09/28 09:18:49;;;;;;;9.70;2.38;;;17.70;65.80;;;;;;5009731;28;20044;-69
2021/09/28 09:21:15;;;;;;;11.05;2.45;;;17.80;65.80;;;;;;5003582;28;20033;-72
2021/09/28 09:23:44;;;;;;;11.45;2.60;;;17.90;65.40;;;;;;5009260;28;20069;-72
2021/09/28 09:26:19;;;;;;;12.07;2.72;;;18.10;64.50;;;;;;5011105;28;20050;-73
2021/09/28 09:28:51;;;;;;;11.52;3.25;;;18.10;64.80;;;;;;5026102;28;20039;-73
2021/09/28 09:31:22;;;;;;;14.13;2.50;;;18.20;64.90;;;;;;5004900;28;20015;-71
2021/09/28 09:34:08;;;;;;;10.02;2.47;;;18.30;64.90;;;;;;5011828;28;20110;-71
2021/09/28 09:36:34;;;;;;;13.70;2.80;;;18.50;65.10;;;;;;5037579;28;20034;-72
2021/09/28 09:39:03;;;;;;;12.80;2.70;;;18.50;63.20;;;;;;5032620;28;20022;-69
2021/09/28 09:41:30;;;;;;;10.50;2.17;;;18.50;63.10;;;;;;5028965;28;20010;-73
2021/09/28 09:44:04;;;;;;;12.35;3.63;;;18.50;64.10;;;;;;5024356;28;20022;-73
2021/09/28 09:46:50;;;;;;;11.95;2.75;;;18.70;63.50;;;;;;5027973;28;20021;-73
2021/09/28 09:49:25;;;;;;;9.27;2.58;;;18.70;62.90;;;;;;5027107;28;20032;-72
2021/09/28 09:51:53;;;;;;;11.30;3.10;;;18.90;62.80;;;;;;5027792;28;20332;-74
2021/09/28 09:54:34;;;;;;;12.20;2.65;;;18.90;61.50;;;;;;5027562;28;20113;-68
2021/09/28 09:57:04;;;;;;;11.93;2.85;;;19.10;61.80;;;;;;5029732;28;20036;-72
2021/09/28 09:59:30;;;;;;;11.98;2.72;;;19.20;61.70;;;;;;5031827;28;20033;-71
2021/09/28 10:01:56;;;;;;;10.40;2.45;;;19.30;61.80;;;;;;5030585;28;20030;-71
2021/09/28 10:04:23;;;;;;;11.52;2.67;;;19.30;60.70;;;;;;5029913;28;20025;-71
2021/09/28 10:06:50;;;;;;;10.27;2.30;;;19.30;60.20;;;;;;5025409;28;20542;-70
2021/09/28 10:09:29;;;;;;;9.57;2.70;;;19.30;60.90;;;;;;5027925;28;20026;-70
2021/09/28 10:12:00;;;;;;;10.93;2.35;;;19.30;61.00;;;;;;5030119;28;20026;-69
2021/09/28 10:14:36;;;;;;;13.25;3.33;;;19.50;61.30;;;;;;5027226;28;20022;-72
2021/09/28 10:17:36;;;;;;;11.75;3.08;;;19.60;60.00;;;;;;5011224;28;20045;-72
2021/09/28 10:20:03;;;;;;;12.52;2.88;;;19.70;59.10;;;;;;5009291;28;20077;-73
2021/09/28 10:22:39;;;;;;;11.40;2.53;;;19.80;59.60;;;;;;5012769;28;20053;-71
2021/09/28 10:25:20;;;;;;;9.35;2.75;;;19.70;59.20;;;;;;5007002;28;20031;-73
2021/09/28 10:27:53;;;;;;;12.35;2.72;;;19.70;58.50;;;;;;5010736;28;20039;-73
2021/09/28 10:30:31;;;;;;;10.15;2.50;;;20.00;58.60;;;;;;5010969;28;20026;-71
2021/09/28 10:33:00;;;;;;;11.95;2.53;;;20.10;58.10;;;;;;5011875;28;20027;-68
2021/09/28 10:35:27;;;;;;;12.25;2.65;;;20.10;58.60;;;;;;5012747;28;20094;-68
2021/09/28 10:37:54;;;;;;;9.50;2.20;;;20.10;57.90;;;;;;5011628;28;20065;-72
2021/09/28 10:40:20;;;;;;;9.35;2.08;;;20.10;57.50;;;;;;5011985;28;20034;-68
2021/09/28 10:42:50;;;;;;;8.77;2.25;;;20.10;57.30;;;;;;5008724;28;20074;-69
2021/09/28 10:45:17;;;;;;;10.55;1.90;;;20.10;56.60;;;;;;5007832;28;20019;-72
2021/09/28 10:47:52;;;;;;;9.43;2.17;;;20.10;54.40;;;;;;5013070;28;20102;-71
2021/09/28 10:50:42;;;;;;;12.18;2.13;;;19.90;54.40;;;;;;5005887;28;20030;-71
2021/09/28 10:53:19;;;;;;;11.43;2.40;;;20.10;55.20;;;;;;5009311;28;20079;-68
2021/09/28 10:56:08;;;;;;;8.52;1.90;;;20.10;55.90;;;;;;5003655;28;20029;-71
2021/09/28 10:58:54;;;;;;;9.00;2.08;;;20.10;56.50;;;;;;5006552;28;20026;-71
2021/09/28 11:01:24;;;;;;;6.72;2.08;;;20.20;55.90;;;;;;5011388;28;20018;-72
2021/09/28 11:03:57;;;;;;;12.43;2.95;;;20.40;55.60;;;;;;5009502;28;20046;-73
2021/09/28 11:06:41;;;;;;;8.73;2.15;;;20.20;56.40;;;;;;5009013;28;20020;-71
2021/09/28 11:09:07;;;;;;;9.85;2.83;;;20.10;55.50;;;;;;5011936;28;20034;-74
2021/09/28 11:11:34;;;;;;;11.90;2.33;;;20.20;55.00;;;;;;5007181;28;20030;-72
2021/09/28 11:14:02;;;;;;;11.35;2.78;;;20.40;55.90;;;;;;5008410;28;20090;-69
2021/09/28 11:16:27;;;;;;;10.50;2.70;;;20.60;55.30;;;;;;5021934;28;20093;-73
2021/09/28 11:19:00;;;;;;;7.65;1.90;;;20.80;54.30;;;;;;5012507;28;20018;-72
2021/09/28 11:21:26;;;;;;;12.30;2.75;;;21.00;54.40;;;;;;5002760;28;20023;-72
2021/09/28 11:23:54;;;;;;;11.80;2.13;;;21.10;53.30;;;;;;5010467;28;20064;-72
2021/09/28 11:26:37;;;;;;;12.65;3.00;;;21.30;53.10;;;;;;5006877;28;20054;-72
2021/09/28 11:29:04;;;;;;;8.90;2.13;;;21.10;52.50;;;;;;5000445;28;20014;-72
2021/09/28 11:31:39;;;;;;;9.35;2.50;;;20.80;52.80;;;;;;5009555;28;20035;-72
2021/09/28 11:34:05;;;;;;;9.70;2.53;;;20.60;53.60;;;;;;5006564;28;20053;-74
2021/09/28 11:36:33;;;;;;;10.40;2.55;;;20.80;52.70;;;;;;5009140;28;20027;-73
2021/09/28 11:38:59;;;;;;;12.63;2.47;;;20.90;52.40;;;;;;5011505;28;20022;-73
2021/09/28 11:41:25;;;;;;;12.40;2.72;;;21.00;52.80;;;;;;5008851;28;20054;-71
2021/09/28 11:44:00;;;;;;;7.82;2.20;;;21.30;52.70;;;;;;5010165;28;20027;-73
2021/09/28 11:46:28;;;;;;;7.82;2.20;;;20.90;51.90;;;;;;5002843;28;20050;-73
2021/09/28 11:48:59;;;;;;;7.88;2.55;;;20.90;52.50;;;;;;5005869;28;20019;-73
2021/09/28 11:51:43;;;;;;;9.13;2.50;;;21.00;52.40;;;;;;5009983;28;20041;-69
2021/09/28 11:54:15;;;;;;;7.38;2.22;;;21.10;52.20;;;;;;5008481;28;20035;-73
2021/09/28 11:56:45;;;;;;;9.45;2.10;;;21.10;52.50;;;;;;5014183;28;20057;-72
2021/09/28 11:59:18;;;;;;;7.82;2.60;;;20.80;53.20;;;;;;5011049;28;20057;-73
2021/09/28 12:01:45;;;;;;;10.77;2.72;;;20.60;54.00;;;;;;5009191;28;20018;-71
2021/09/28 12:09:45;;;;;;;10.25;2.70;;;20.40;55.30;;;;;;5024143;28;20057;-73
2021/09/28 12:12:13;;;;;;;10.25;2.17;;;20.60;56.40;;;;;;5030587;28;20049;-71
2021/09/28 12:14:45;;;;;;;9.80;2.60;;;20.90;54.70;;;;;;5028367;28;20014;-74
2021/09/28 12:17:25;;;;;;;6.15;1.90;;;21.00;55.30;;;;;;5030388;28;20085;-76
2021/09/28 12:19:57;;;;;;;8.88;2.25;;;21.30;54.60;;;;;;5025335;28;20062;-73
2021/09/28 12:22:27;;;;;;;7.53;2.25;;;21.30;54.10;;;;;;5029083;28;20018;-70
2021/09/28 12:24:54;;;;;;;8.35;2.33;;;21.10;54.00;;;;;;5027120;28;20057;-72
2021/09/28 12:27:25;;;;;;;11.65;2.53;;;21.00;54.50;;;;;;5023318;28;20022;-71
2021/09/28 12:29:54;;;;;;;7.50;2.13;;;21.00;54.90;;;;;;5029620;28;20033;-71
2021/09/28 12:32:22;;;;;;;10.23;2.35;;;20.60;55.50;;;;;;5028582;28;20018;-71
2021/09/28 12:34:58;;;;;;;8.02;1.83;;;20.90;55.60;;;;;;5024818;28;20037;-73
2021/09/28 12:37:25;;;;;;;9.75;1.85;;;21.30;54.80;;;;;;5030087;28;20026;-72
2021/09/28 12:40:25;;;;;;;7.35;1.73;;;21.50;54.70;;;;;;5029885;28;20014;-72
2021/09/28 12:43:08;;;;;;;7.65;1.90;;;21.50;52.60;;;;;;5028595;28;20322;-69
2021/09/28 12:45:56;;;;;;;7.38;1.60;;;21.50;52.30;;;;;;5023487;28;20126;-73
2021/09/28 12:48:35;;;;;;;7.72;1.90;;;21.60;52.60;;;;;;5026646;28;20034;-69
2021/09/28 12:51:10;;;;;;;7.35;1.70;;;21.50;52.20;;;;;;5025076;28;20045;-72
2021/09/28 12:53:37;;;;;;;5.45;1.55;;;21.30;53.50;;;;;;5028973;28;20045;-72